Anderson, Texas
Current Conditions -  °F | °C
As of 11:18 PM on Sunday 21 Dec 2014 (Local Time) from KCLL Reporting Station
Overcast Overcast  
Wind Chill: 56°   Ceiling: 2400
Heat Index: 56°   Visibility: 10mi
Dew Point: 52°   Wind: 15mph
Humidity: 87%   Direction: 170°S
Pressure: 29.85"   Gusts: NA
Location:  30.49°N, 95.99°W
Report Text: KCLL 220518Z AUTO 17013KT 10SM FEW012 BKN024 OVC031 13/11 A2985 RMK AO2 T01330111
Loading
Personal Weather Stations






























Interactive Weather Map New forecast layout! Learn more

10-Day Weather Forecast

Advertisements
Track Severe Weather on mobile